createdAt,value
2022-09-02T00:09:08.496Z,101921.97
2022-09-02T00:19:31.223Z,101923.44
2022-09-02T00:29:53.355Z,101928.47
2022-09-02T00:40:19.727Z,101919.66
2022-09-02T00:50:41.408Z,101913.53
2022-09-02T01:01:04.203Z,101909.31
2022-09-02T01:11:32.263Z,101908.41
2022-09-02T01:21:56.091Z,101901.03
2022-09-02T01:32:18.516Z,101891.56
2022-09-02T01:42:44.180Z,101883.75
2022-09-02T01:53:05.954Z,101871.16
2022-09-02T02:03:28.593Z,101872.16
2022-09-02T02:13:50.826Z,101872.25
2022-09-02T02:24:12.536Z,101869.22
2022-09-02T02:34:35.089Z,101859.16
2022-09-02T02:44:56.622Z,101851.16
2022-09-02T02:55:18.047Z,101853.53
2022-09-02T03:05:40.806Z,101838.72
2022-09-02T03:16:05.156Z,101838.78
2022-09-02T03:26:26.735Z,101836.75
2022-09-02T03:36:48.136Z,101822.69
2022-09-02T03:47:09.887Z,101818.75
2022-09-02T03:57:32.071Z,101821.19
2022-09-02T04:07:56.821Z,101811.09
2022-09-02T04:18:18.447Z,101805.38
2022-09-02T04:28:40.362Z,101808.69
2022-09-02T04:39:01.828Z,101801.34
2022-09-02T04:49:23.522Z,101797.63
2022-09-02T04:59:45.341Z,101796.81
2022-09-02T05:10:07.894Z,101796.72
2022-09-02T05:20:29.511Z,101802.72
2022-09-02T05:30:51.001Z,101801.38
2022-09-02T05:41:17.610Z,101804.75
2022-09-02T05:51:43.083Z,101801.78
2022-09-02T06:02:04.717Z,101798.75
2022-09-02T06:12:26.200Z,101791.81
2022-09-02T06:22:48.601Z,101785.13
2022-09-02T06:33:11.362Z,101797.00
2022-09-02T06:43:42.267Z,101797.16
2022-09-02T06:54:06.969Z,101798.69
2022-09-02T07:04:47.343Z,101795.66
2022-09-02T07:15:10.391Z,101784.66
2022-09-02T07:25:32.257Z,101778.28
2022-09-02T07:35:53.981Z,101768.44
2022-09-02T07:46:15.771Z,101773.44
2022-09-02T07:56:37.730Z,101774.81
2022-09-02T08:06:59.241Z,101779.16
2022-09-02T08:17:20.870Z,101775.13
2022-09-02T08:27:42.402Z,101769.78
2022-09-02T08:38:03.945Z,101764.47
2022-09-02T08:48:36.312Z,101753.81
2022-09-02T08:58:58.156Z,101759.19
2022-09-02T09:09:31.701Z,101748.88
2022-09-02T09:19:58.573Z,101743.84
2022-09-02T09:30:20.162Z,101718.38
2022-09-02T09:40:41.929Z,101708.06
2022-09-02T09:51:03.890Z,101702.16
2022-09-02T10:01:30.315Z,101700.38
2022-09-02T10:11:57.655Z,101694.31
2022-09-02T10:22:58.743Z,101666.38
2022-09-02T10:33:25.041Z,101657.41
2022-09-02T10:43:57.366Z,101641.47
2022-09-02T10:54:19.102Z,101636.34
2022-09-02T11:04:51.806Z,101618.53
2022-09-02T11:15:23.318Z,101614.13
2022-09-02T11:25:52.121Z,101608.19
2022-09-02T11:36:13.806Z,101592.16
2022-09-02T11:47:03.614Z,101577.03
2022-09-02T11:57:25.953Z,101569.00
2022-09-02T12:07:49.414Z,101573.66
2022-09-02T12:18:31.008Z,101565.16
2022-09-02T12:28:54.115Z,101551.59
2022-09-02T12:39:25.579Z,101531.94
2022-09-02T12:50:00.595Z,101517.72
2022-09-02T13:00:47.187Z,101516.00
2022-09-02T13:11:41.010Z,101502.84
2022-09-02T13:22:20.647Z,101483.88
2022-09-02T13:32:43.327Z,101477.78
2022-09-02T13:43:18.371Z,101473.44
2022-09-02T13:53:53.924Z,101464.50
2022-09-02T14:04:21.267Z,101460.66
2022-09-02T14:14:43.142Z,101455.13
2022-09-02T14:25:16.423Z,101433.53
2022-09-02T14:35:37.990Z,101428.91
2022-09-02T14:46:06.696Z,101413.09
2022-09-02T14:57:04.994Z,101416.50
2022-09-02T15:07:27.100Z,101411.94
2022-09-02T15:17:48.644Z,101405.56
2022-09-02T15:28:11.045Z,101405.78
2022-09-02T15:38:32.922Z,101398.63
2022-09-02T15:48:59.063Z,101395.59
2022-09-02T15:59:24.921Z,101390.13
2022-09-02T16:09:46.505Z,101376.13
2022-09-02T16:20:08.473Z,101364.41
2022-09-02T16:30:30.276Z,101358.19
2022-09-02T16:40:55.779Z,101342.38
2022-09-02T16:51:18.298Z,101335.25
2022-09-02T17:01:40.518Z,101331.06
2022-09-02T17:12:02.326Z,101332.34
2022-09-02T17:22:23.864Z,101326.31
2022-09-02T17:32:51.927Z,101330.97
2022-09-02T17:43:17.335Z,101345.72
2022-09-02T17:53:44.215Z,101347.59
2022-09-02T18:04:20.713Z,101348.25
2022-09-02T18:14:50.403Z,101344.84
2022-09-02T18:25:35.500Z,101354.28
2022-09-02T18:36:17.211Z,101361.81
2022-09-02T18:46:48.765Z,101373.81
2022-09-02T18:57:10.676Z,101380.88
2022-09-02T19:07:51.198Z,101398.56
2022-09-02T19:18:12.750Z,101401.09
2022-09-02T19:28:34.535Z,101398.66
2022-09-02T19:38:56.633Z,101401.72
2022-09-02T19:49:18.188Z,101410.09
2022-09-02T19:59:39.754Z,101420.31
2022-09-02T20:10:01.637Z,101423.34
2022-09-02T20:20:25.345Z,101421.41
2022-09-02T20:30:56.468Z,101423.75
2022-09-02T20:41:26.857Z,101426.22
2022-09-02T20:51:51.304Z,101430.31
2022-09-02T21:02:14.936Z,101416.91
2022-09-02T21:12:43.414Z,101425.66
2022-09-02T21:23:13.752Z,101423.16
2022-09-02T21:33:35.767Z,101428.31
2022-09-02T21:44:33.942Z,101422.94
2022-09-02T21:55:46.386Z,101424.88
2022-09-02T22:06:28.546Z,101418.75
2022-09-02T22:17:01.594Z,101412.91
2022-09-02T22:27:41.204Z,101411.25
2022-09-02T22:38:25.605Z,101411.19
2022-09-02T22:49:17.490Z,101398.84
2022-09-02T22:59:51.732Z,101403.69
2022-09-02T23:10:22.830Z,101400.75
2022-09-02T23:21:02.213Z,101389.41
2022-09-02T23:32:03.140Z,101385.28
2022-09-02T23:42:25.675Z,101392.94
2022-09-02T23:52:57.640Z,101378.13
